sensor_id;sensor_type;location;lat;lon;timestamp;P1;durP1;ratioP1;P2;durP2;ratioP2
43841;SDS011;29495;49.970;20.842;2023-03-30T00:00:39;12.10;;;5.70;;
43841;SDS011;29495;49.970;20.842;2023-03-30T00:03:07;13.07;;;6.72;;
43841;SDS011;29495;49.970;20.842;2023-03-30T00:05:34;15.95;;;7.00;;
43841;SDS011;29495;49.970;20.842;2023-03-30T00:08:01;13.02;;;6.65;;
43841;SDS011;29495;49.970;20.842;2023-03-30T00:10:27;12.80;;;6.78;;
43841;SDS011;29495;49.970;20.842;2023-03-30T00:12:53;13.43;;;6.20;;
43841;SDS011;29495;49.970;20.842;2023-03-30T00:15:21;12.98;;;6.53;;
43841;SDS011;29495;49.970;20.842;2023-03-30T00:17:48;13.95;;;5.80;;
43841;SDS011;29495;49.970;20.842;2023-03-30T00:20:15;10.02;;;5.30;;
43841;SDS011;29495;49.970;20.842;2023-03-30T00:22:42;12.35;;;5.28;;
43841;SDS011;29495;49.970;20.842;2023-03-30T00:25:10;11.40;;;5.85;;
43841;SDS011;29495;49.970;20.842;2023-03-30T00:27:38;9.93;;;5.47;;
43841;SDS011;29495;49.970;20.842;2023-03-30T00:30:07;8.88;;;4.75;;
43841;SDS011;29495;49.970;20.842;2023-03-30T00:32:35;10.40;;;4.55;;
43841;SDS011;29495;49.970;20.842;2023-03-30T00:35:02;8.43;;;4.70;;
43841;SDS011;29495;49.970;20.842;2023-03-30T00:37:29;10.85;;;5.47;;
43841;SDS011;29495;49.970;20.842;2023-03-30T00:39:56;11.55;;;4.90;;
43841;SDS011;29495;49.970;20.842;2023-03-30T00:42:22;10.40;;;5.57;;
43841;SDS011;29495;49.970;20.842;2023-03-30T00:50:21;9.52;;;5.30;;
43841;SDS011;29495;49.970;20.842;2023-03-30T00:52:49;8.48;;;4.90;;
43841;SDS011;29495;49.970;20.842;2023-03-30T00:55:20;11.68;;;4.97;;
43841;SDS011;29495;49.970;20.842;2023-03-30T00:57:49;8.38;;;4.65;;
43841;SDS011;29495;49.970;20.842;2023-03-30T01:00:16;10.68;;;4.03;;
43841;SDS011;29495;49.970;20.842;2023-03-30T01:02:44;10.35;;;4.50;;
43841;SDS011;29495;49.970;20.842;2023-03-30T01:05:14;8.95;;;4.65;;
43841;SDS011;29495;49.970;20.842;2023-03-30T01:07:41;9.90;;;4.95;;
43841;SDS011;29495;49.970;20.842;2023-03-30T01:10:10;11.13;;;4.43;;
43841;SDS011;29495;49.970;20.842;2023-03-30T01:12:37;9.90;;;4.50;;
43841;SDS011;29495;49.970;20.842;2023-03-30T01:15:04;10.50;;;5.50;;
43841;SDS011;29495;49.970;20.842;2023-03-30T01:17:34;8.57;;;4.40;;
43841;SDS011;29495;49.970;20.842;2023-03-30T01:28:57;8.30;;;4.10;;
43841;SDS011;29495;49.970;20.842;2023-03-30T01:31:47;8.45;;;4.38;;
43841;SDS011;29495;49.970;20.842;2023-03-30T01:42:21;7.47;;;4.40;;
43841;SDS011;29495;49.970;20.842;2023-03-30T01:50:40;9.10;;;4.68;;
43841;SDS011;29495;49.970;20.842;2023-03-30T01:53:31;9.75;;;4.38;;
43841;SDS011;29495;49.970;20.842;2023-03-30T01:58:37;9.63;;;4.47;;
43841;SDS011;29495;49.970;20.842;2023-03-30T02:01:08;9.27;;;4.57;;
43841;SDS011;29495;49.970;20.842;2023-03-30T02:03:39;8.27;;;4.30;;
43841;SDS011;29495;49.970;20.842;2023-03-30T02:08:34;8.27;;;4.05;;
43841;SDS011;29495;49.970;20.842;2023-03-30T02:11:03;9.40;;;4.50;;
43841;SDS011;29495;49.970;20.842;2023-03-30T02:13:30;7.25;;;3.95;;
43841;SDS011;29495;49.970;20.842;2023-03-30T02:15:58;7.38;;;3.97;;
43841;SDS011;29495;49.970;20.842;2023-03-30T02:18:45;7.77;;;4.40;;
43841;SDS011;29495;49.970;20.842;2023-03-30T02:21:11;6.97;;;3.72;;
43841;SDS011;29495;49.970;20.842;2023-03-30T02:23:37;7.60;;;3.83;;
43841;SDS011;29495;49.970;20.842;2023-03-30T02:26:06;8.10;;;3.60;;
43841;SDS011;29495;49.970;20.842;2023-03-30T02:28:34;8.10;;;4.35;;
43841;SDS011;29495;49.970;20.842;2023-03-30T02:30:59;7.32;;;4.22;;
43841;SDS011;29495;49.970;20.842;2023-03-30T02:41:43;7.05;;;3.53;;
43841;SDS011;29495;49.970;20.842;2023-03-30T02:44:44;9.02;;;4.35;;
43841;SDS011;29495;49.970;20.842;2023-03-30T02:47:21;5.68;;;3.10;;
43841;SDS011;29495;49.970;20.842;2023-03-30T02:50:03;6.40;;;3.92;;
43841;SDS011;29495;49.970;20.842;2023-03-30T02:52:48;7.95;;;3.55;;
43841;SDS011;29495;49.970;20.842;2023-03-30T02:55:29;7.40;;;3.88;;
43841;SDS011;29495;49.970;20.842;2023-03-30T02:58:22;12.02;;;6.30;;
43841;SDS011;29495;49.970;20.842;2023-03-30T03:01:35;7.10;;;3.60;;
43841;SDS011;29495;49.970;20.842;2023-03-30T03:04:14;6.78;;;3.50;;
43841;SDS011;29495;49.970;20.842;2023-03-30T03:07:17;7.65;;;4.00;;
43841;SDS011;29495;49.970;20.842;2023-03-30T03:09:45;6.47;;;4.20;;
43841;SDS011;29495;49.970;20.842;2023-03-30T03:12:11;8.60;;;5.05;;
43841;SDS011;29495;49.970;20.842;2023-03-30T03:14:37;10.35;;;4.35;;
43841;SDS011;29495;49.970;20.842;2023-03-30T03:17:04;8.73;;;6.03;;
43841;SDS011;29495;49.970;20.842;2023-03-30T03:19:34;9.88;;;5.93;;
43841;SDS011;29495;49.970;20.842;2023-03-30T03:22:01;11.88;;;6.57;;
43841;SDS011;29495;49.970;20.842;2023-03-30T03:24:30;9.75;;;6.82;;
43841;SDS011;29495;49.970;20.842;2023-03-30T03:27:16;8.30;;;4.70;;
43841;SDS011;29495;49.970;20.842;2023-03-30T03:29:59;7.35;;;3.65;;
43841;SDS011;29495;49.970;20.842;2023-03-30T03:32:25;6.18;;;3.63;;
43841;SDS011;29495;49.970;20.842;2023-03-30T03:34:51;7.63;;;4.35;;
43841;SDS011;29495;49.970;20.842;2023-03-30T03:37:17;7.03;;;3.97;;
43841;SDS011;29495;49.970;20.842;2023-03-30T03:39:44;7.55;;;4.93;;
43841;SDS011;29495;49.970;20.842;2023-03-30T03:42:12;5.97;;;3.67;;
43841;SDS011;29495;49.970;20.842;2023-03-30T03:45:10;8.30;;;4.18;;
43841;SDS011;29495;49.970;20.842;2023-03-30T03:47:49;6.72;;;3.38;;
43841;SDS011;29495;49.970;20.842;2023-03-30T03:50:16;8.23;;;4.57;;
43841;SDS011;29495;49.970;20.842;2023-03-30T03:52:43;7.50;;;3.85;;
43841;SDS011;29495;49.970;20.842;2023-03-30T03:55:09;6.47;;;4.07;;
43841;SDS011;29495;49.970;20.842;2023-03-30T03:57:38;6.88;;;3.38;;
43841;SDS011;29495;49.970;20.842;2023-03-30T04:00:04;6.70;;;3.28;;
43841;SDS011;29495;49.970;20.842;2023-03-30T04:02:40;7.90;;;3.30;;
43841;SDS011;29495;49.970;20.842;2023-03-30T04:05:07;6.50;;;3.63;;
43841;SDS011;29495;49.970;20.842;2023-03-30T04:07:35;5.45;;;3.35;;
43841;SDS011;29495;49.970;20.842;2023-03-30T04:10:02;5.90;;;3.20;;
43841;SDS011;29495;49.970;20.842;2023-03-30T04:12:48;6.18;;;3.40;;
43841;SDS011;29495;49.970;20.842;2023-03-30T04:15:26;5.85;;;3.20;;
43841;SDS011;29495;49.970;20.842;2023-03-30T04:18:11;7.88;;;4.03;;
43841;SDS011;29495;49.970;20.842;2023-03-30T04:20:52;11.50;;;4.57;;
43841;SDS011;29495;49.970;20.842;2023-03-30T04:23:46;8.65;;;4.30;;
43841;SDS011;29495;49.970;20.842;2023-03-30T04:26:32;7.75;;;3.80;;
43841;SDS011;29495;49.970;20.842;2023-03-30T04:29:06;7.47;;;4.18;;
43841;SDS011;29495;49.970;20.842;2023-03-30T04:31:42;8.52;;;3.65;;
43841;SDS011;29495;49.970;20.842;2023-03-30T04:34:29;6.30;;;3.60;;
43841;SDS011;29495;49.970;20.842;2023-03-30T04:37:16;6.18;;;3.90;;
43841;SDS011;29495;49.970;20.842;2023-03-30T04:40:03;5.75;;;3.60;;
43841;SDS011;29495;49.970;20.842;2023-03-30T04:42:45;7.78;;;3.42;;
43841;SDS011;29495;49.970;20.842;2023-03-30T04:45:17;7.93;;;3.95;;
43841;SDS011;29495;49.970;20.842;2023-03-30T04:48:09;9.93;;;3.58;;
43841;SDS011;29495;49.970;20.842;2023-03-30T04:50:54;6.72;;;3.25;;
43841;SDS011;29495;49.970;20.842;2023-03-30T04:53:40;7.70;;;3.58;;
43841;SDS011;29495;49.970;20.842;2023-03-30T04:56:24;7.13;;;4.00;;
43841;SDS011;29495;49.970;20.842;2023-03-30T04:59:01;8.13;;;4.03;;
43841;SDS011;29495;49.970;20.842;2023-03-30T05:01:44;10.18;;;4.57;;
43841;SDS011;29495;49.970;20.842;2023-03-30T05:04:25;9.38;;;4.80;;
43841;SDS011;29495;49.970;20.842;2023-03-30T05:07:09;5.88;;;3.85;;
43841;SDS011;29495;49.970;20.842;2023-03-30T05:09:54;6.28;;;3.50;;
43841;SDS011;29495;49.970;20.842;2023-03-30T05:12:39;5.90;;;3.70;;
43841;SDS011;29495;49.970;20.842;2023-03-30T05:15:16;6.82;;;3.47;;
43841;SDS011;29495;49.970;20.842;2023-03-30T05:17:44;6.15;;;3.33;;
43841;SDS011;29495;49.970;20.842;2023-03-30T05:20:41;6.07;;;3.53;;
43841;SDS011;29495;49.970;20.842;2023-03-30T05:23:22;8.57;;;3.42;;
43841;SDS011;29495;49.970;20.842;2023-03-30T05:26:07;7.05;;;3.92;;
43841;SDS011;29495;49.970;20.842;2023-03-30T05:29:07;7.97;;;4.07;;
43841;SDS011;29495;49.970;20.842;2023-03-30T05:31:53;6.35;;;3.85;;
43841;SDS011;29495;49.970;20.842;2023-03-30T05:34:36;7.25;;;4.35;;
43841;SDS011;29495;49.970;20.842;2023-03-30T05:37:20;4.65;;;3.20;;
43841;SDS011;29495;49.970;20.842;2023-03-30T05:40:05;4.00;;;3.03;;
43841;SDS011;29495;49.970;20.842;2023-03-30T05:43:00;5.85;;;3.53;;
43841;SDS011;29495;49.970;20.842;2023-03-30T05:45:46;7.88;;;3.50;;
43841;SDS011;29495;49.970;20.842;2023-03-30T05:48:35;6.80;;;3.92;;
43841;SDS011;29495;49.970;20.842;2023-03-30T05:51:17;4.35;;;3.22;;
43841;SDS011;29495;49.970;20.842;2023-03-30T05:54:03;5.28;;;3.70;;
43841;SDS011;29495;49.970;20.842;2023-03-30T05:56:58;8.02;;;4.07;;
43841;SDS011;29495;49.970;20.842;2023-03-30T05:59:24;6.38;;;4.28;;
43841;SDS011;29495;49.970;20.842;2023-03-30T06:02:00;7.57;;;4.47;;
43841;SDS011;29495;49.970;20.842;2023-03-30T06:04:26;8.40;;;5.40;;
43841;SDS011;29495;49.970;20.842;2023-03-30T06:06:52;10.32;;;4.80;;
43841;SDS011;29495;49.970;20.842;2023-03-30T06:09:19;13.20;;;4.97;;
43841;SDS011;29495;49.970;20.842;2023-03-30T06:11:45;5.93;;;3.60;;
43841;SDS011;29495;49.970;20.842;2023-03-30T06:14:17;8.07;;;3.80;;
43841;SDS011;29495;49.970;20.842;2023-03-30T06:16:59;11.93;;;5.78;;
43841;SDS011;29495;49.970;20.842;2023-03-30T06:19:25;12.80;;;5.63;;
43841;SDS011;29495;49.970;20.842;2023-03-30T06:21:51;12.73;;;5.03;;
43841;SDS011;29495;49.970;20.842;2023-03-30T06:24:38;7.93;;;4.57;;
43841;SDS011;29495;49.970;20.842;2023-03-30T06:27:04;7.88;;;4.95;;
43841;SDS011;29495;49.970;20.842;2023-03-30T06:29:30;11.02;;;4.18;;
43841;SDS011;29495;49.970;20.842;2023-03-30T06:31:57;6.18;;;3.65;;
43841;SDS011;29495;49.970;20.842;2023-03-30T06:34:42;6.32;;;3.70;;
43841;SDS011;29495;49.970;20.842;2023-03-30T06:37:10;8.02;;;4.75;;
43841;SDS011;29495;49.970;20.842;2023-03-30T06:39:36;7.18;;;3.85;;
43841;SDS011;29495;49.970;20.842;2023-03-30T06:42:04;5.43;;;3.60;;
43841;SDS011;29495;49.970;20.842;2023-03-30T06:44:48;7.15;;;3.95;;
43841;SDS011;29495;49.970;20.842;2023-03-30T06:47:14;9.48;;;4.88;;
43841;SDS011;29495;49.970;20.842;2023-03-30T06:49:40;20.17;;;9.00;;
43841;SDS011;29495;49.970;20.842;2023-03-30T06:52:39;27.30;;;11.02;;
43841;SDS011;29495;49.970;20.842;2023-03-30T06:55:05;26.77;;;11.48;;
43841;SDS011;29495;49.970;20.842;2023-03-30T06:57:32;24.52;;;11.45;;
43841;SDS011;29495;49.970;20.842;2023-03-30T06:59:59;16.23;;;8.55;;
43841;SDS011;29495;49.970;20.842;2023-03-30T07:02:38;11.97;;;7.13;;
43841;SDS011;29495;49.970;20.842;2023-03-30T07:08:10;7.45;;;4.07;;
43841;SDS011;29495;49.970;20.842;2023-03-30T07:10:39;8.70;;;3.90;;
43841;SDS011;29495;49.970;20.842;2023-03-30T07:13:07;6.50;;;3.67;;
43841;SDS011;29495;49.970;20.842;2023-03-30T07:15:35;7.47;;;3.58;;
43841;SDS011;29495;49.970;20.842;2023-03-30T07:18:01;7.70;;;4.20;;
43841;SDS011;29495;49.970;20.842;2023-03-30T07:20:27;10.07;;;4.43;;
43841;SDS011;29495;49.970;20.842;2023-03-30T07:23:07;10.20;;;4.53;;
43841;SDS011;29495;49.970;20.842;2023-03-30T07:25:34;9.77;;;4.25;;
43841;SDS011;29495;49.970;20.842;2023-03-30T07:28:08;7.75;;;4.75;;
43841;SDS011;29495;49.970;20.842;2023-03-30T07:30:35;7.93;;;4.40;;
